sensor_id;sensor_type;location;lat;lon;timestamp;pressure;altitude;pressure_sealevel;temperature;humidity
61484;BME280;47349;55.640;37.692;2023-02-04T00:02:26;98707.34;;;0.23;94.23
61484;BME280;47349;55.640;37.692;2023-02-04T00:04:53;98707.25;;;0.24;94.30
61484;BME280;47349;55.640;37.692;2023-02-04T00:07:20;98700.41;;;0.22;94.71
61484;BME280;47349;55.640;37.692;2023-02-04T00:09:47;98705.00;;;0.20;94.74
61484;BME280;47349;55.640;37.692;2023-02-04T00:12:15;98711.09;;;0.20;94.91
61484;BME280;47349;55.640;37.692;2023-02-04T00:14:43;98716.38;;;0.20;95.17
61484;BME280;47349;55.640;37.692;2023-02-04T00:17:10;98720.28;;;0.26;95.63
61484;BME280;47349;55.640;37.692;2023-02-04T00:19:39;98708.31;;;0.22;94.93
61484;BME280;47349;55.640;37.692;2023-02-04T00:22:06;98710.81;;;0.23;95.34
61484;BME280;47349;55.640;37.692;2023-02-04T00:24:36;98712.75;;;0.21;95.89
61484;BME280;47349;55.640;37.692;2023-02-04T00:27:04;98709.44;;;0.19;96.23
61484;BME280;47349;55.640;37.692;2023-02-04T00:29:31;98713.31;;;0.15;96.65
61484;BME280;47349;55.640;37.692;2023-02-04T00:31:58;98718.00;;;0.12;97.24
61484;BME280;47349;55.640;37.692;2023-02-04T00:34:26;98718.56;;;0.15;97.60
61484;BME280;47349;55.640;37.692;2023-02-04T00:36:53;98721.06;;;0.17;96.96
61484;BME280;47349;55.640;37.692;2023-02-04T00:39:20;98721.22;;;0.15;97.63
61484;BME280;47349;55.640;37.692;2023-02-04T00:41:47;98723.97;;;0.14;97.60
61484;BME280;47349;55.640;37.692;2023-02-04T00:44:14;98726.34;;;0.17;98.04
61484;BME280;47349;55.640;37.692;2023-02-04T00:46:41;98723.44;;;0.20;97.82
61484;BME280;47349;55.640;37.692;2023-02-04T00:49:09;98727.03;;;0.19;97.77
61484;BME280;47349;55.640;37.692;2023-02-04T00:51:37;98734.00;;;0.20;97.81
61484;BME280;47349;55.640;37.692;2023-02-04T00:54:05;98739.25;;;0.20;97.18
61484;BME280;47349;55.640;37.692;2023-02-04T00:56:33;98743.56;;;0.21;97.14
61484;BME280;47349;55.640;37.692;2023-02-04T00:59:01;98742.72;;;0.20;96.49
61484;BME280;47349;55.640;37.692;2023-02-04T01:01:28;98736.47;;;0.21;96.45
61484;BME280;47349;55.640;37.692;2023-02-04T01:03:55;98741.59;;;0.23;96.30
61484;BME280;47349;55.640;37.692;2023-02-04T01:06:22;98740.63;;;0.24;96.75
61484;BME280;47349;55.640;37.692;2023-02-04T01:08:49;98740.63;;;0.24;96.52
61484;BME280;47349;55.640;37.692;2023-02-04T01:11:17;98744.69;;;0.28;96.99
61484;BME280;47349;55.640;37.692;2023-02-04T01:13:44;98746.38;;;0.29;96.71
61484;BME280;47349;55.640;37.692;2023-02-04T01:16:11;98744.16;;;0.34;96.13
61484;BME280;47349;55.640;37.692;2023-02-04T01:18:38;98752.31;;;0.31;96.31
61484;BME280;47349;55.640;37.692;2023-02-04T01:21:05;98746.63;;;0.26;96.62
61484;BME280;47349;55.640;37.692;2023-02-04T01:23:32;98752.03;;;0.24;96.83
61484;BME280;47349;55.640;37.692;2023-02-04T01:25:59;98751.59;;;0.19;96.99
61484;BME280;47349;55.640;37.692;2023-02-04T01:28:27;98755.47;;;0.15;96.85
61484;BME280;47349;55.640;37.692;2023-02-04T01:30:54;98758.66;;;0.19;97.31
61484;BME280;47349;55.640;37.692;2023-02-04T01:33:21;98752.44;;;0.20;97.02
61484;BME280;47349;55.640;37.692;2023-02-04T01:35:49;98754.78;;;0.23;96.91
61484;BME280;47349;55.640;37.692;2023-02-04T01:38:16;98754.97;;;0.31;96.41
61484;BME280;47349;55.640;37.692;2023-02-04T01:40:43;98756.94;;;0.39;96.72
61484;BME280;47349;55.640;37.692;2023-02-04T01:43:10;98764.72;;;0.40;95.85
61484;BME280;47349;55.640;37.692;2023-02-04T01:45:37;98765.97;;;0.46;95.93
61484;BME280;47349;55.640;37.692;2023-02-04T01:48:05;98762.94;;;0.50;95.77
61484;BME280;47349;55.640;37.692;2023-02-04T01:50:35;98771.41;;;0.54;95.99
61484;BME280;47349;55.640;37.692;2023-02-04T01:53:03;98767.94;;;0.54;95.31
61484;BME280;47349;55.640;37.692;2023-02-04T01:55:31;98780.84;;;0.57;95.74
61484;BME280;47349;55.640;37.692;2023-02-04T01:57:59;98778.19;;;0.57;95.28
61484;BME280;47349;55.640;37.692;2023-02-04T02:00:28;98780.00;;;0.56;95.24
61484;BME280;47349;55.640;37.692;2023-02-04T02:02:57;98784.44;;;0.56;95.01
61484;BME280;47349;55.640;37.692;2023-02-04T02:05:43;98785.13;;;0.58;95.14
61484;BME280;47349;55.640;37.692;2023-02-04T02:08:11;98789.72;;;0.56;94.71
61484;BME280;47349;55.640;37.692;2023-02-04T02:10:39;98793.88;;;0.48;94.71
61484;BME280;47349;55.640;37.692;2023-02-04T02:13:07;98802.03;;;0.45;95.25
61484;BME280;47349;55.640;37.692;2023-02-04T02:15:37;98804.94;;;0.42;95.37
61484;BME280;47349;55.640;37.692;2023-02-04T02:18:04;98803.53;;;0.38;95.84
61484;BME280;47349;55.640;37.692;2023-02-04T02:20:32;98803.00;;;0.44;96.28
61484;BME280;47349;55.640;37.692;2023-02-04T02:23:01;98795.78;;;0.46;95.74
61484;BME280;47349;55.640;37.692;2023-02-04T02:25:30;98798.56;;;0.45;95.28
61484;BME280;47349;55.640;37.692;2023-02-04T02:27:57;98802.28;;;0.42;95.37
61484;BME280;47349;55.640;37.692;2023-02-04T02:30:24;98804.25;;;0.40;95.50
61484;BME280;47349;55.640;37.692;2023-02-04T02:32:53;98805.22;;;0.39;95.40
61484;BME280;47349;55.640;37.692;2023-02-04T02:35:21;98812.84;;;0.42;95.33
61484;BME280;47349;55.640;37.692;2023-02-04T02:37:48;98809.22;;;0.43;95.53
61484;BME280;47349;55.640;37.692;2023-02-04T02:40:15;98812.59;;;0.45;95.36
61484;BME280;47349;55.640;37.692;2023-02-04T02:42:42;98811.03;;;0.43;94.73
61484;BME280;47349;55.640;37.692;2023-02-04T02:45:17;98814.09;;;0.48;95.16
61484;BME280;47349;55.640;37.692;2023-02-04T02:47:47;98809.25;;;0.53;94.28
61484;BME280;47349;55.640;37.692;2023-02-04T02:50:15;98816.63;;;0.49;94.22
61484;BME280;47349;55.640;37.692;2023-02-04T02:52:42;98823.28;;;0.44;94.25
61484;BME280;47349;55.640;37.692;2023-02-04T02:55:16;98824.34;;;0.41;94.51
61484;BME280;47349;55.640;37.692;2023-02-04T02:57:47;98825.19;;;0.42;94.82
61484;BME280;47349;55.640;37.692;2023-02-04T03:00:16;98825.91;;;0.44;94.61
61484;BME280;47349;55.640;37.692;2023-02-04T03:02:44;98826.84;;;0.43;94.71
61484;BME280;47349;55.640;37.692;2023-02-04T03:05:13;98830.22;;;0.45;94.51
61484;BME280;47349;55.640;37.692;2023-02-04T03:07:41;98833.94;;;0.42;94.24
61484;BME280;47349;55.640;37.692;2023-02-04T03:10:08;98836.00;;;0.39;94.53
61484;BME280;47349;55.640;37.692;2023-02-04T03:12:38;98839.72;;;0.36;94.80
61484;BME280;47349;55.640;37.692;2023-02-04T03:15:05;98840.72;;;0.35;95.11
61484;BME280;47349;55.640;37.692;2023-02-04T03:17:32;98840.38;;;0.29;94.96
61484;BME280;47349;55.640;37.692;2023-02-04T03:19:59;98843.16;;;0.27;95.42
61484;BME280;47349;55.640;37.692;2023-02-04T03:22:27;98839.53;;;0.28;95.69
61484;BME280;47349;55.640;37.692;2023-02-04T03:24:54;98843.59;;;0.32;95.64
61484;BME280;47349;55.640;37.692;2023-02-04T03:27:24;98854.84;;;0.34;94.85
61484;BME280;47349;55.640;37.692;2023-02-04T03:29:51;98857.75;;;0.31;95.39
61484;BME280;47349;55.640;37.692;2023-02-04T03:32:18;98855.94;;;0.32;95.78
61484;BME280;47349;55.640;37.692;2023-02-04T03:34:45;98855.09;;;0.31;96.00
61484;BME280;47349;55.640;37.692;2023-02-04T03:37:11;98856.19;;;0.29;96.03
61484;BME280;47349;55.640;37.692;2023-02-04T03:39:39;98859.94;;;0.26;96.66
61484;BME280;47349;55.640;37.692;2023-02-04T03:42:06;98865.22;;;0.26;96.37
61484;BME280;47349;55.640;37.692;2023-02-04T03:44:33;98860.63;;;0.28;96.60
61484;BME280;47349;55.640;37.692;2023-02-04T03:47:00;98861.22;;;0.32;96.90
61484;BME280;47349;55.640;37.692;2023-02-04T03:49:27;98868.97;;;0.33;96.52
61484;BME280;47349;55.640;37.692;2023-02-04T03:51:54;98867.31;;;0.32;96.08
61484;BME280;47349;55.640;37.692;2023-02-04T03:54:21;98874.53;;;0.30;96.13
61484;BME280;47349;55.640;37.692;2023-02-04T03:56:48;98863.84;;;0.32;96.53
61484;BME280;47349;55.640;37.692;2023-02-04T03:59:15;98873.41;;;0.33;96.37
61484;BME280;47349;55.640;37.692;2023-02-04T04:01:42;98867.59;;;0.29;96.34
61484;BME280;47349;55.640;37.692;2023-02-04T04:04:09;98870.22;;;0.29;96.06
61484;BME280;47349;55.640;37.692;2023-02-04T04:06:36;98867.59;;;0.29;96.00
61484;BME280;47349;55.640;37.692;2023-02-04T04:09:03;98871.16;;;0.28;96.69
61484;BME280;47349;55.640;37.692;2023-02-04T04:11:30;98884.34;;;0.28;96.33
61484;BME280;47349;55.640;37.692;2023-02-04T04:13:57;98889.63;;;0.28;96.23
61484;BME280;47349;55.640;37.692;2023-02-04T04:16:24;98890.34;;;0.30;96.17
61484;BME280;47349;55.640;37.692;2023-02-04T04:18:51;98888.69;;;0.29;96.25
61484;BME280;47349;55.640;37.692;2023-02-04T04:21:18;98895.84;;;0.27;95.80
61484;BME280;47349;55.640;37.692;2023-02-04T04:23:45;98897.53;;;0.28;95.59
61484;BME280;47349;55.640;37.692;2023-02-04T04:26:12;98892.00;;;0.31;95.48
61484;BME280;47349;55.640;37.692;2023-02-04T04:28:40;98906.84;;;0.32;95.19
61484;BME280;47349;55.640;37.692;2023-02-04T04:31:07;98902.03;;;0.37;96.02
61484;BME280;47349;55.640;37.692;2023-02-04T04:33:34;98911.72;;;0.37;95.44
61484;BME280;47349;55.640;37.692;2023-02-04T04:36:01;98903.97;;;0.35;95.57
61484;BME280;47349;55.640;37.692;2023-02-04T04:38:28;98906.91;;;0.42;95.74
61484;BME280;47349;55.640;37.692;2023-02-04T04:40:55;98899.31;;;0.48;95.30
61484;BME280;47349;55.640;37.692;2023-02-04T04:43:22;98904.31;;;0.51;94.91
61484;BME280;47349;55.640;37.692;2023-02-04T04:45:49;98909.44;;;0.53;94.51
61484;BME280;47349;55.640;37.692;2023-02-04T04:48:16;98916.22;;;0.46;94.51
61484;BME280;47349;55.640;37.692;2023-02-04T04:50:43;98905.44;;;0.49;95.12
61484;BME280;47349;55.640;37.692;2023-02-04T04:53:10;98909.59;;;0.51;94.52
61484;BME280;47349;55.640;37.692;2023-02-04T04:55:37;98908.19;;;0.47;94.82
61484;BME280;47349;55.640;37.692;2023-02-04T04:58:05;98919.44;;;0.49;94.54
61484;BME280;47349;55.640;37.692;2023-02-04T05:00:33;98920.09;;;0.42;94.79
61484;BME280;47349;55.640;37.692;2023-02-04T05:04:02;98928.13;;;0.40;95.30
61484;BME280;47349;55.640;37.692;2023-02-04T05:06:29;98924.78;;;0.38;94.39
61484;BME280;47349;55.640;37.692;2023-02-04T05:08:56;98924.78;;;0.38;94.16
61484;BME280;47349;55.640;37.692;2023-02-04T05:11:23;98926.03;;;0.34;93.74
61484;BME280;47349;55.640;37.692;2023-02-04T05:13:50;98933.94;;;0.34;93.84
61484;BME280;47349;55.640;37.692;2023-02-04T05:16:17;98930.31;;;0.35;93.19
61484;BME280;47349;55.640;37.692;2023-02-04T05:18:45;98940.34;;;0.41;93.11
61484;BME280;47349;55.640;37.692;2023-02-04T05:21:12;98948.09;;;0.43;93.17
61484;BME280;47349;55.640;37.692;2023-02-04T05:23:39;98945.38;;;0.44;92.40
61484;BME280;47349;55.640;37.692;2023-02-04T05:26:12;98953.00;;;0.47;91.39
61484;BME280;47349;55.640;37.692;2023-02-04T05:28:55;98954.41;;;0.51;90.88
61484;BME280;47349;55.640;37.692;2023-02-04T05:31:22;98958.72;;;0.52;90.85
61484;BME280;47349;55.640;37.692;2023-02-04T05:33:49;98961.09;;;0.56;90.43
61484;BME280;47349;55.640;37.692;2023-02-04T05:36:16;98956.78;;;0.55;90.52
61484;BME280;47349;55.640;37.692;2023-02-04T05:38:43;98963.50;;;0.59;89.84
61484;BME280;47349;55.640;37.692;2023-02-04T05:41:10;98971.25;;;0.60;89.51
61484;BME280;47349;55.640;37.692;2023-02-04T05:43:38;98970.66;;;0.57;89.22
61484;BME280;47349;55.640;37.692;2023-02-04T05:46:05;98972.63;;;0.55;89.02
61484;BME280;47349;55.640;37.692;2023-02-04T05:48:32;98968.19;;;0.55;88.25
61484;BME280;47349;55.640;37.692;2023-02-04T05:50:59;98974.53;;;0.52;87.41
61484;BME280;47349;55.640;37.692;2023-02-04T05:53:26;98976.47;;;0.50;87.18
61484;BME280;47349;55.640;37.692;2023-02-04T05:55:53;98986.78;;;0.54;86.82
61484;BME280;47349;55.640;37.692;2023-02-04T05:58:20;98986.78;;;0.54;86.85
61484;BME280;47349;55.640;37.692;2023-02-04T06:00:47;98993.72;;;0.55;86.48
61484;BME280;47349;55.640;37.692;2023-02-04T06:03:14;98992.59;;;0.57;86.21
61484;BME280;47349;55.640;37.692;2023-02-04T06:05:41;99001.47;;;0.56;86.20
61484;BME280;47349;55.640;37.692;2023-02-04T06:08:10;98996.34;;;0.55;85.78
61484;BME280;47349;55.640;37.692;2023-02-04T06:10:36;99008.41;;;0.57;85.58
61484;BME280;47349;55.640;37.692;2023-02-04T06:13:03;99006.38;;;0.61;86.00
61484;BME280;47349;55.640;37.692;2023-02-04T06:15:30;99012.84;;;0.57;86.38
61484;BME280;47349;55.640;37.692;2023-02-04T06:17:57;99017.88;;;0.60;86.34
61484;BME280;47349;55.640;37.692;2023-02-04T06:20:24;99017.59;;;0.63;85.55
61484;BME280;47349;55.640;37.692;2023-02-04T06:22:51;99021.81;;;0.65;85.74
61484;BME280;47349;55.640;37.692;2023-02-04T06:25:20;99023.47;;;0.66;85.65
61484;BME280;47349;55.640;37.692;2023-02-04T06:27:47;99027.91;;;0.66;85.79
61484;BME280;47349;55.640;37.692;2023-02-04T06:30:15;99027.38;;;0.72;87.06
61484;BME280;47349;55.640;37.692;2023-02-04T06:32:42;99022.56;;;0.77;86.83
61484;BME280;47349;55.640;37.692;2023-02-04T06:35:09;99030.81;;;0.84;86.98
61484;BME280;47349;55.640;37.692;2023-02-04T06:37:38;99030.91;;;0.82;85.87
61484;BME280;47349;55.640;37.692;2023-02-04T06:40:05;99037.88;;;0.83;86.41
61484;BME280;47349;55.640;37.692;2023-02-04T06:42:34;99038.06;;;0.91;86.61
61484;BME280;47349;55.640;37.692;2023-02-04T06:45:01;99040.31;;;0.96;86.34
61484;BME280;47349;55.640;37.692;2023-02-04T06:47:28;99038.00;;;1.02;87.02
61484;BME280;47349;55.640;37.692;2023-02-04T06:49:55;99037.72;;;1.06;86.35
61484;BME280;47349;55.640;37.692;2023-02-04T06:52:22;99051.63;;;1.08;85.79
61484;BME280;47349;55.640;37.692;2023-02-04T06:54:49;99049.81;;;1.08;86.24
61484;BME280;47349;55.640;37.692;2023-02-04T06:57:16;99045.97;;;1.12;85.62
61484;BME280;47349;55.640;37.692;2023-02-04T06:59:43;99055.94;;;1.09;85.68
61484;BME280;47349;55.640;37.692;2023-02-04T07:02:10;99057.34;;;1.13;86.12
61484;BME280;47349;55.640;37.692;2023-02-04T07:04:38;99064.16;;;1.15;85.49
61484;BME280;47349;55.640;37.692;2023-02-04T07:07:05;99062.78;;;1.21;85.33
61484;BME280;47349;55.640;37.692;2023-02-04T07:09:32;99067.38;;;1.19;84.96
61484;BME280;47349;55.640;37.692;2023-02-04T07:11:59;99066.78;;;1.15;85.60
61484;BME280;47349;55.640;37.692;2023-02-04T07:14:26;99072.34;;;1.12;85.99
61484;BME280;47349;55.640;37.692;2023-02-04T07:16:53;99076.78;;;1.12;84.86
61484;BME280;47349;55.640;37.692;2023-02-04T07:19:20;99043.06;;;0.94;84.88
61484;BME280;47349;55.640;37.692;2023-02-04T07:21:47;99076.97;;;1.20;84.93
61484;BME280;47349;55.640;37.692;2023-02-04T07:24:14;99075.47;;;1.27;85.22
61484;BME280;47349;55.640;37.692;2023-02-04T07:26:41;99078.28;;;1.35;84.77
61484;BME280;47349;55.640;37.692;2023-02-04T07:29:08;99082.63;;;1.36;83.24
61484;BME280;47349;55.640;37.692;2023-02-04T07:31:46;99071.88;;;1.28;82.75
61484;BME280;47349;55.640;37.692;2023-02-04T07:34:13;99072.00;;;1.26;82.13
61484;BME280;47349;55.640;37.692;2023-02-04T07:36:40;99079.09;;;1.26;82.80
61484;BME280;47349;55.640;37.692;2023-02-04T07:39:08;99083.56;;;1.35;82.79
61484;BME280;47349;55.640;37.692;2023-02-04T07:41:54;99080.84;;;1.46;80.89
61484;BME280;47349;55.640;37.692;2023-02-04T07:44:30;99086.38;;;1.43;80.10
61484;BME280;47349;55.640;37.692;2023-02-04T07:46:57;99088.59;;;1.38;80.12
61484;BME280;47349;55.640;37.692;2023-02-04T07:49:24;99093.88;;;1.38;79.07
61484;BME280;47349;55.640;37.692;2023-02-04T07:51:51;99093.16;;;1.36;78.27
61484;BME280;47349;55.640;37.692;2023-02-04T07:54:18;99092.44;;;1.34;77.52
61484;BME280;47349;55.640;37.692;2023-02-04T07:56:45;99094.13;;;1.35;79.61
61484;BME280;47349;55.640;37.692;2023-02-04T07:59:12;99098.88;;;1.41;80.62
61484;BME280;47349;55.640;37.692;2023-02-04T08:01:39;99100.59;;;1.52;79.87
61484;BME280;47349;55.640;37.692;2023-02-04T08:04:06;99099.47;;;1.54;80.59
61484;BME280;47349;55.640;37.692;2023-02-04T08:06:33;99105.03;;;1.51;80.04
61484;BME280;47349;55.640;37.692;2023-02-04T08:09:00;99100.75;;;1.50;79.14
61484;BME280;47349;55.640;37.692;2023-02-04T08:11:28;99103.09;;;1.53;80.12
61484;BME280;47349;55.640;37.692;2023-02-04T08:13:55;99111.78;;;1.65;81.27
61484;BME280;47349;55.640;37.692;2023-02-04T08:16:22;99114.59;;;1.83;80.17
61484;BME280;47349;55.640;37.692;2023-02-04T08:18:49;99108.25;;;1.95;80.02
61484;BME280;47349;55.640;37.692;2023-02-04T08:21:16;99109.91;;;1.96;79.40
61484;BME280;47349;55.640;37.692;2023-02-04T08:23:45;99120.75;;;1.93;78.25
61484;BME280;47349;55.640;37.692;2023-02-04T08:26:12;99113.53;;;1.95;78.30
61484;BME280;47349;55.640;37.692;2023-02-04T08:28:39;99118.81;;;1.95;78.07
61484;BME280;47349;55.640;37.692;2023-02-04T08:31:06;99121.47;;;1.95;77.11
61484;BME280;47349;55.640;37.692;2023-02-04T08:33:38;99126.03;;;1.93;76.64
61484;BME280;47349;55.640;37.692;2023-02-04T08:36:06;99134.50;;;1.87;77.55
61484;BME280;47349;55.640;37.692;2023-02-04T08:38:33;99125.72;;;1.77;78.41
61484;BME280;47349;55.640;37.692;2023-02-04T08:41:01;99136.03;;;1.80;78.60
61484;BME280;47349;55.640;37.692;2023-02-04T08:43:28;99129.38;;;1.86;78.08
61484;BME280;47349;55.640;37.692;2023-02-04T08:45:57;99127.84;;;1.93;78.27
61484;BME280;47349;55.640;37.692;2023-02-04T08:48:24;99131.06;;;1.96;78.43
61484;BME280;47349;55.640;37.692;2023-02-04T08:50:51;99133.03;;;1.94;78.00
61484;BME280;47349;55.640;37.692;2023-02-04T08:53:18;99130.53;;;2.02;77.06
61484;BME280;47349;55.640;37.692;2023-02-04T08:55:45;99138.44;;;2.02;76.56
61484;BME280;47349;55.640;37.692;2023-02-04T08:58:12;99133.13;;;1.93;76.96
61484;BME280;47349;55.640;37.692;2023-02-04T09:00:39;99132.84;;;1.86;77.62
61484;BME280;47349;55.640;37.692;2023-02-04T09:03:07;99136.19;;;1.88;79.07
61484;BME280;47349;55.640;37.692;2023-02-04T09:05:34;99137.47;;;1.94;78.16
61484;BME280;47349;55.640;37.692;2023-02-04T09:08:19;99134.94;;;1.92;76.31
61484;BME280;47349;55.640;37.692;2023-02-04T09:10:57;99132.59;;;1.89;76.11
61484;BME280;47349;55.640;37.692;2023-02-04T09:13:24;99141.78;;;1.95;75.75
61484;BME280;47349;55.640;37.692;2023-02-04T09:15:51;99143.03;;;2.00;75.69
61484;BME280;47349;55.640;37.692;2023-02-04T09:18:19;99142.50;;;2.06;77.16
61484;BME280;47349;55.640;37.692;2023-02-04T09:20:48;99138.34;;;2.14;76.29
61484;BME280;47349;55.640;37.692;2023-02-04T09:23:15;99134.75;;;2.24;76.47
61484;BME280;47349;55.640;37.692;2023-02-04T09:25:43;99146.59;;;2.30;76.19
61484;BME280;47349;55.640;37.692;2023-02-04T09:28:11;99140.16;;;2.13;75.02
61484;BME280;47349;55.640;37.692;2023-02-04T09:30:43;99145.97;;;2.07;75.25
61484;BME280;47349;55.640;37.692;2023-02-04T09:33:11;99144.13;;;1.98;75.75
61484;BME280;47349;55.640;37.692;2023-02-04T09:35:39;99148.03;;;1.94;76.52
61484;BME280;47349;55.640;37.692;2023-02-04T09:38:06;99151.25;;;2.07;77.55
61484;BME280;47349;55.640;37.692;2023-02-04T09:40:33;99150.44;;;2.06;75.62
61484;BME280;47349;55.640;37.692;2023-02-04T09:43:03;99151.41;;;2.05;76.82
61484;BME280;47349;55.640;37.692;2023-02-04T09:45:34;99153.09;;;2.16;77.51
61484;BME280;47349;55.640;37.692;2023-02-04T09:48:03;99155.06;;;2.24;77.14
61484;BME280;47349;55.640;37.692;2023-02-04T09:50:30;99161.63;;;2.29;78.08
61484;BME280;47349;55.640;37.692;2023-02-04T09:53:03;99165.94;;;2.30;77.68
61484;BME280;47349;55.640;37.692;2023-02-04T09:55:33;99161.22;;;2.34;78.25
61484;BME280;47349;55.640;37.692;2023-02-04T09:58:01;99172.47;;;2.36;77.88
61484;BME280;47349;55.640;37.692;2023-02-04T10:00:29;99167.19;;;2.36;77.81
61484;BME280;47349;55.640;37.692;2023-02-04T10:02:57;99176.81;;;2.37;77.42
61484;BME280;47349;55.640;37.692;2023-02-04T10:05:29;99175.28;;;2.44;77.25
61484;BME280;47349;55.640;37.692;2023-02-04T10:07:57;99181.03;;;2.59;76.81
61484;BME280;47349;55.640;37.692;2023-02-04T10:10:25;99185.47;;;2.58;76.56
61484;BME280;47349;55.640;37.692;2023-02-04T10:12:57;99177.81;;;2.55;76.84
61484;BME280;47349;55.640;37.692;2023-02-04T10:15:25;99181.56;;;2.53;77.71
61484;BME280;47349;55.640;37.692;2023-02-04T10:17:54;99189.22;;;2.56;78.89
61484;BME280;47349;55.640;37.692;2023-02-04T10:20:24;99190.59;;;2.50;79.55
61484;BME280;47349;55.640;37.692;2023-02-04T10:22:52;99190.78;;;2.58;79.65
61484;BME280;47349;55.640;37.692;2023-02-04T10:25:21;99195.09;;;2.60;79.86
61484;BME280;47349;55.640;37.692;2023-02-04T10:27:59;99190.78;;;2.58;81.24
61484;BME280;47349;55.640;37.692;2023-02-04T10:30:28;99193.00;;;2.73;80.33
61484;BME280;47349;55.640;37.692;2023-02-04T10:35:50;99190.13;;;2.95;79.61
61484;BME280;47349;55.640;37.692;2023-02-04T10:38:17;99203.19;;;3.06;79.02
61484;BME280;47349;55.640;37.692;2023-02-04T10:40:47;99200.69;;;3.05;77.95
61484;BME280;47349;55.640;37.692;2023-02-04T10:43:21;99211.16;;;3.06;78.19
61484;BME280;47349;55.640;37.692;2023-02-04T10:45:55;99213.78;;;3.06;78.39
61484;BME280;47349;55.640;37.692;2023-02-04T10:48:23;99217.25;;;3.17;79.07
61484;BME280;47349;55.640;37.692;2023-02-04T10:50:54;99218.94;;;3.18;78.09
61484;BME280;47349;55.640;37.692;2023-02-04T10:53:24;99217.41;;;3.15;78.18
61484;BME280;47349;55.640;37.692;2023-02-04T10:56:14;99217.00;;;3.10;77.78
61484;BME280;47349;55.640;37.692;2023-02-04T10:58:42;99218.09;;;3.07;79.33
61484;BME280;47349;55.640;37.692;2023-02-04T11:01:10;99226.31;;;3.04;78.91
61484;BME280;47349;55.640;37.692;2023-02-04T11:03:38;99228.00;;;2.96;78.74
61484;BME280;47349;55.640;37.692;2023-02-04T11:06:12;99225.78;;;2.91;79.36
61484;BME280;47349;55.640;37.692;2023-02-04T11:08:41;99234.53;;;2.92;79.35
61484;BME280;47349;55.640;37.692;2023-02-04T11:11:14;99233.28;;;2.86;78.85
61484;BME280;47349;55.640;37.692;2023-02-04T11:13:43;99232.56;;;2.74;79.22
61484;BME280;47349;55.640;37.692;2023-02-04T11:21:26;99239.38;;;2.57;80.11
61484;BME280;47349;55.640;37.692;2023-02-04T11:24:03;99244.09;;;2.54;79.38
61484;BME280;47349;55.640;37.692;2023-02-04T11:26:35;99250.31;;;2.43;79.85
61484;BME280;47349;55.640;37.692;2023-02-04T11:34:07;99240.38;;;2.26;80.04
61484;BME280;47349;55.640;37.692;2023-02-04T11:39:25;99254.00;;;1.91;82.63
61484;BME280;47349;55.640;37.692;2023-02-04T11:41:54;99255.50;;;1.63;84.58
61484;BME280;47349;55.640;37.692;2023-02-04T11:44:21;99252.88;;;1.63;85.53
61484;BME280;47349;55.640;37.692;2023-02-04T11:46:49;99260.66;;;1.64;86.06
61484;BME280;47349;55.640;37.692;2023-02-04T11:49:18;99251.19;;;1.62;85.32
61484;BME280;47349;55.640;37.692;2023-02-04T11:51:46;99261.63;;;1.63;85.96
61484;BME280;47349;55.640;37.692;2023-02-04T11:54:13;99267.75;;;1.64;86.08
61484;BME280;47349;55.640;37.692;2023-02-04T11:56:42;99264.41;;;1.62;86.19
61484;BME280;47349;55.640;37.692;2023-02-04T11:59:10;99275.28;;;1.68;86.36
61484;BME280;47349;55.640;37.692;2023-02-04T12:01:38;99277.47;;;1.63;86.68
61484;BME280;47349;55.640;37.692;2023-02-04T12:04:18;99275.09;;;1.60;86.80
61484;BME280;47349;55.640;37.692;2023-02-04T12:06:55;99284.84;;;1.60;87.47
61484;BME280;47349;55.640;37.692;2023-02-04T12:09:24;99287.19;;;1.63;87.41
61484;BME280;47349;55.640;37.692;2023-02-04T12:14:18;99283.03;;;1.60;86.46
61484;BME280;47349;55.640;37.692;2023-02-04T12:19:13;99285.22;;;1.55;87.12
61484;BME280;47349;55.640;37.692;2023-02-04T12:21:40;99292.41;;;1.53;87.58
61484;BME280;47349;55.640;37.692;2023-02-04T12:24:07;99293.69;;;1.59;87.95
61484;BME280;47349;55.640;37.692;2023-02-04T12:26:37;99300.19;;;1.54;87.33
61484;BME280;47349;55.640;37.692;2023-02-04T12:29:05;99297.31;;;1.58;86.98
61484;BME280;47349;55.640;37.692;2023-02-04T12:31:32;99299.72;;;1.61;87.32
61484;BME280;47349;55.640;37.692;2023-02-04T12:34:00;99298.75;;;1.62;87.11
61484;BME280;47349;55.640;37.692;2023-02-04T12:36:27;99304.47;;;1.67;86.80
61484;BME280;47349;55.640;37.692;2023-02-04T12:38:56;99305.63;;;1.74;86.01
61484;BME280;47349;55.640;37.692;2023-02-04T12:41:25;99308.41;;;1.72;85.74
61484;BME280;47349;55.640;37.692;2023-02-04T12:43:54;99308.91;;;1.66;85.72
61484;BME280;47349;55.640;37.692;2023-02-04T12:46:22;99318.66;;;1.66;85.51
61484;BME280;47349;55.640;37.692;2023-02-04T12:48:49;99325.41;;;1.59;85.75
61484;BME280;47349;55.640;37.692;2023-02-04T12:51:17;99327.09;;;1.60;86.09
61484;BME280;47349;55.640;37.692;2023-02-04T12:53:48;99325.16;;;1.62;85.73
61484;BME280;47349;55.640;37.692;2023-02-04T12:56:15;99330.81;;;1.57;85.91
61484;BME280;47349;55.640;37.692;2023-02-04T12:58:46;99329.97;;;1.57;85.91
61484;BME280;47349;55.640;37.692;2023-02-04T13:01:13;99333.59;;;1.56;85.29
61484;BME280;47349;55.640;37.692;2023-02-04T13:03:40;99333.25;;;1.49;85.61
61484;BME280;47349;55.640;37.692;2023-02-04T13:06:07;99335.09;;;1.37;86.02
61484;BME280;47349;55.640;37.692;2023-02-04T13:08:34;99340.16;;;1.40;86.45
61484;BME280;47349;55.640;37.692;2023-02-04T13:11:02;99348.38;;;1.47;85.98
61484;BME280;47349;55.640;37.692;2023-02-04T13:13:29;99346.88;;;1.33;86.18
61484;BME280;47349;55.640;37.692;2023-02-04T13:15:56;99347.38;;;1.27;86.44
61484;BME280;47349;55.640;37.692;2023-02-04T13:18:23;99345.72;;;1.15;87.56
61484;BME280;47349;55.640;37.692;2023-02-04T13:20:50;99351.94;;;1.25;88.33
61484;BME280;47349;55.640;37.692;2023-02-04T13:23:17;99352.44;;;1.19;87.57
61484;BME280;47349;55.640;37.692;2023-02-04T13:25:44;99348.34;;;1.26;88.52
61484;BME280;47349;55.640;37.692;2023-02-04T13:28:11;99353.13;;;1.32;87.98